Terminal Aerodrome Forecast
Issued by NWS

Home | Current Version | Previous Version | Text Only | Print | Product List | Glossary On
Versions: 1 2 3 4 5 6 7 8 9 10 11 12 13 14 15 16
602
FTUS45 KRIW 271720
TAFRKS
TAF
KRKS 271720Z 2718/2818 22009KT 2SM -SN BKN015 OVC025
      TEMPO 2718/2721 1/2SM SN FG
     FM272100 24011KT 4SM -SHSN BKN018 OVC030
     FM272300 25011KT P6SM VCSH SCT030 BKN050
     FM280100 27011KT P6SM FEW050 BKN100 WS010/27030KT=

USA.gov is the U.S. government's official web portal to all federal, state and local government web resources and services.